Time;durP1;ratioP1;P1;durP2;ratioP2;P2;SDS_P1;SDS_P2;PMS_P1;PMS_P2;Temp;Humidity;BMP_temperature;BMP_pressure;BME280_temperature;BME280_humidity;BME280_pressure;Samples;Min_cycle;Max_cycle;Signal;HPM_P1;HPM_P2
2022/11/24 00:02:01;;;;;;;6.15;1.60;;;;;;;5.66;100.00;100107.53;6201805;28;20501;-70
2022/11/24 00:05:02;;;;;;;2.10;1.05;;;;;;;5.64;100.00;100104.16;6201193;28;20042;-69
2022/11/24 00:08:04;;;;;;;1.38;1.00;;;;;;;5.59;100.00;100109.56;6202111;28;20047;-70
2022/11/24 00:11:07;;;;;;;4.45;0.90;;;;;;;5.56;100.00;100113.13;6201126;28;20046;-70
2022/11/24 00:14:11;;;;;;;2.33;0.90;;;;;;;5.56;100.00;100122.72;6201500;28;20054;-70
2022/11/24 00:17:12;;;;;;;1.17;0.68;;;;;;;5.54;100.00;100114.97;6201362;28;20521;-70
2022/11/24 00:20:14;;;;;;;0.57;0.50;;;;;;;5.52;100.00;100119.38;6201075;28;20046;-70
2022/11/24 00:23:15;;;;;;;5.53;0.95;;;;;;;5.53;100.00;100122.84;6201322;28;20073;-70
2022/11/24 00:26:20;;;;;;;2.05;1.00;;;;;;;5.53;100.00;100123.69;6200994;28;20061;-70
2022/11/24 00:29:23;;;;;;;1.23;0.80;;;;;;;5.49;100.00;100129.09;6201367;28;20053;-70
2022/11/24 00:32:24;;;;;;;1.50;0.82;;;;;;;5.47;100.00;100131.78;6200674;28;20058;-70
2022/11/24 00:35:26;;;;;;;0.95;0.60;;;;;;;5.46;100.00;100131.84;6200822;28;20069;-70
2022/11/24 00:38:27;;;;;;;1.00;0.77;;;;;;;5.42;100.00;100138.94;6200847;28;20172;-70
2022/11/24 00:41:30;;;;;;;2.97;1.00;;;;;;;5.39;100.00;100146.88;6200916;28;20132;-70
2022/11/24 00:44:32;;;;;;;4.05;0.82;;;;;;;5.40;100.00;100139.91;6200293;28;20630;-69
2022/11/24 00:47:34;;;;;;;7.47;0.90;;;;;;;5.41;100.00;100155.50;6200923;28;20051;-70
2022/11/24 00:50:35;;;;;;;1.98;0.90;;;;;;;5.43;100.00;100148.44;6200438;28;20050;-70
2022/11/24 00:53:37;;;;;;;3.20;0.73;;;;;;;5.46;100.00;100139.66;6200736;28;20426;-70
2022/11/24 00:56:39;;;;;;;0.63;0.63;;;;;;;5.51;100.00;100146.38;6200088;28;20189;-70
2022/11/24 00:59:41;;;;;;;1.38;0.70;;;;;;;5.55;100.00;100147.09;6200843;28;20047;-69
2022/11/24 01:02:43;;;;;;;0.90;0.90;;;;;;;5.52;100.00;100148.06;6200161;28;20425;-70
2022/11/24 01:05:44;;;;;;;6.90;1.05;;;;;;;5.50;100.00;100146.44;6200021;28;20051;-70
2022/11/24 01:08:46;;;;;;;3.35;0.85;;;;;;;5.47;100.00;100157.84;6200560;28;20050;-70
2022/11/24 01:12:03;;;;;;;1.83;0.95;;;;;;;5.44;100.00;100160.56;6199755;28;20050;-69
2022/11/24 01:15:06;;;;;;;2.35;1.00;;;;;;;5.41;100.00;100173.72;6200359;28;20061;-70
2022/11/24 01:18:09;;;;;;;2.20;1.10;;;;;;;5.38;100.00;100173.00;6200058;28;20046;-69
2022/11/24 01:21:10;;;;;;;2.42;1.13;;;;;;;5.38;100.00;100160.81;6199847;28;20050;-70
2022/11/24 01:24:13;;;;;;;2.25;1.08;;;;;;;5.39;100.00;100167.72;6199503;28;20046;-70
2022/11/24 01:27:14;;;;;;;1.48;0.88;;;;;;;5.38;100.00;100163.41;6200086;28;20054;-70
2022/11/24 01:30:17;;;;;;;3.15;0.93;;;;;;;5.38;100.00;100175.59;6199374;28;20054;-70
2022/11/24 01:33:19;;;;;;;0.82;0.80;;;;;;;5.33;100.00;100171.44;6199924;28;20469;-70
2022/11/24 01:36:20;;;;;;;1.50;0.60;;;;;;;5.30;100.00;100184.56;6199261;28;20055;-70
2022/11/24 01:39:22;;;;;;;1.30;1.05;;;;;;;5.29;100.00;100169.84;6199808;28;20046;-69
2022/11/24 01:42:23;;;;;;;7.32;1.30;;;;;;;5.31;100.00;100181.09;6198880;28;20057;-70
2022/11/24 01:45:39;;;;;;;1.40;1.05;;;;;;;5.38;100.00;100179.06;6199235;28;20046;-70
2022/11/24 01:48:44;;;;;;;0.82;0.70;;;;;;;5.46;100.00;100181.34;6199718;28;20050;-70
2022/11/24 01:51:49;;;;;;;3.78;1.00;;;;;;;5.52;100.00;100175.88;6199259;28;20050;-70
2022/11/24 01:54:54;;;;;;;1.88;1.00;;;;;;;5.54;100.00;100172.31;6198817;28;20054;-70
2022/11/24 01:58:01;;;;;;;0.70;0.60;;;;;;;5.56;100.00;100178.28;6199246;28;20073;-69
2022/11/24 02:01:04;;;;;;;7.40;0.85;;;;;;;5.52;100.00;100184.53;6198488;28;20047;-70
2022/11/24 02:04:11;;;;;;;5.75;1.30;;;;;;;5.52;100.00;100183.69;6198504;28;20050;-70
2022/11/24 02:07:14;;;;;;;5.63;1.10;;;;;;;5.50;100.00;100181.16;6199137;28;20061;-70
2022/11/24 02:10:16;;;;;;;2.60;1.20;;;;;;;5.50;100.00;100188.13;6198410;28;20046;-70
2022/11/24 02:13:18;;;;;;;2.03;1.13;;;;;;;5.51;100.00;100188.06;6198998;28;20061;-70
2022/11/24 02:16:20;;;;;;;6.80;1.52;;;;;;;5.55;100.00;100188.78;6198187;28;20061;-70
2022/11/24 02:19:35;;;;;;;3.35;0.98;;;;;;;5.53;100.00;100191.44;6198780;28;20478;-70
2022/11/24 02:22:45;;;;;;;7.82;1.30;;;;;;;5.52;100.00;100196.72;6198070;28;20057;-70
2022/11/24 02:25:54;;;;;;;2.50;0.95;;;;;;;5.55;100.00;100202.66;6198365;28;20077;-70
2022/11/24 02:28:57;;;;;;;5.82;1.55;;;;;;;5.61;100.00;100198.94;6198304;28;20411;-70
2022/11/24 02:32:04;;;;;;;8.57;1.90;;;;;;;5.67;100.00;100200.44;6198119;28;20046;-70
2022/11/24 02:35:07;;;;;;;3.05;1.20;;;;;;;5.76;100.00;100208.72;6197991;28;20054;-69
2022/11/24 02:38:11;;;;;;;5.65;1.92;;;;;;;5.86;100.00;100211.81;6198427;28;20085;-70
2022/11/24 02:41:16;;;;;;;1.52;1.10;;;;;;;5.95;100.00;100214.06;6197892;28;20046;-70
2022/11/24 02:44:21;;;;;;;5.00;1.42;;;;;;;6.03;100.00;100216.31;6198241;28;20050;-69
2022/11/24 02:47:23;;;;;;;2.35;1.40;;;;;;;6.09;100.00;100205.66;6198193;28;20058;-70
2022/11/24 02:50:24;;;;;;;4.75;1.35;;;;;;;6.16;100.00;100214.03;6197635;28;20417;-70
2022/11/24 02:53:26;;;;;;;2.78;1.48;;;;;;;6.23;100.00;100212.88;6198161;28;20061;-70
2022/11/24 02:56:27;;;;;;;2.08;1.20;;;;;;;6.25;100.00;100218.84;6197769;28;20054;-70
2022/11/24 02:59:30;;;;;;;4.90;1.23;;;;;;;6.29;100.00;100233.47;6197982;28;20046;-70
2022/11/24 03:02:31;;;;;;;2.95;1.40;;;;;;;6.31;100.00;100226.41;6197463;28;20415;-70
2022/11/24 03:05:33;;;;;;;9.15;1.65;;;;;;;6.35;100.00;100233.19;6197513;28;20076;-70
2022/11/24 03:08:34;;;;;;;5.32;1.63;;;;;;;6.39;100.00;100232.13;6197763;28;20066;-70
2022/11/24 03:11:36;;;;;;;4.05;2.92;;;;;;;6.42;100.00;100234.63;6196588;28;20048;-70
2022/11/24 03:14:38;;;;;;;11.13;2.00;;;;;;;6.45;100.00;100238.84;6197359;28;20051;-70
2022/11/24 03:17:40;;;;;;;5.78;1.70;;;;;;;6.48;100.00;100231.72;6197548;28;20097;-70
2022/11/24 03:20:43;;;;;;;6.28;1.50;;;;;;;6.52;100.00;100240.28;6197236;28;20050;-70
2022/11/24 03:23:44;;;;;;;8.55;2.58;;;;;;;6.61;100.00;100239.84;6197320;28;20057;-69
2022/11/24 03:26:45;;;;;;;4.47;1.45;;;;;;;6.74;100.00;100248.00;6197589;28;20046;-70
2022/11/24 03:29:48;;;;;;;5.60;1.90;;;;;;;6.72;100.00;100241.97;6197303;28;20054;-70
2022/11/24 03:32:51;;;;;;;6.65;1.75;;;;;;;6.69;100.00;100250.81;6197750;28;20518;-70
2022/11/24 03:35:52;;;;;;;6.95;2.00;;;;;;;6.61;100.00;100250.28;6197194;28;20061;-72
2022/11/24 03:38:53;;;;;;;9.07;2.40;;;;;;;6.57;100.00;100253.97;6197526;28;20525;-72
2022/11/24 03:41:55;;;;;;;9.48;2.10;;;;;;;6.53;100.00;100261.06;6196857;28;20050;-69
2022/11/24 03:44:58;;;;;;;5.40;1.63;;;;;;;6.51;100.00;100265.53;6197219;28;20055;-72
2022/11/24 03:47:59;;;;;;;8.77;1.60;;;;;;;6.44;100.00;100260.63;6195261;28;20057;-71
2022/11/24 03:51:02;;;;;;;9.45;1.25;;;;;;;6.40;100.00;100262.53;6196930;28;20054;-70
2022/11/24 03:54:04;;;;;;;3.35;1.42;;;;;;;6.35;100.00;100267.09;6197185;28;20050;-72
2022/11/24 03:57:05;;;;;;;6.00;2.38;;;;;;;6.38;100.00;100268.75;6197452;28;20054;-70
2022/11/24 04:00:10;;;;;;;3.63;1.65;;;;;;;6.42;100.00;100272.91;6197082;28;20050;-70
2022/11/24 04:03:12;;;;;;;5.90;1.70;;;;;;;6.41;100.00;100279.06;6197294;28;20083;-70
2022/11/24 04:06:13;;;;;;;9.55;2.13;;;;;;;6.39;100.00;100279.09;6197035;28;20046;-70
2022/11/24 04:09:15;;;;;;;8.27;1.60;;;;;;;6.32;100.00;100278.53;6197256;28;20053;-70
2022/11/24 04:15:38;;;;;;;5.95;1.27;;;;;;;6.22;100.00;100290.28;6196854;28;20565;-70
2022/11/24 04:18:39;;;;;;;7.90;1.73;;;;;;;6.21;100.00;100287.72;6196960;28;20057;-70
2022/11/24 04:21:41;;;;;;;3.72;1.42;;;;;;;6.21;100.00;100300.78;6196652;28;20410;-70
2022/11/24 04:24:42;;;;;;;3.42;1.77;;;;;;;6.22;100.00;100305.94;6200660;28;20061;-70
2022/11/24 04:27:44;;;;;;;6.85;1.95;;;;;;;6.19;100.00;100305.22;6201459;28;20050;-70
2022/11/24 04:30:46;;;;;;;5.40;1.58;;;;;;;6.15;100.00;100308.88;6200946;28;20050;-70
2022/11/24 04:33:48;;;;;;;5.57;1.73;;;;;;;6.18;100.00;100306.16;6201043;28;20090;-70
2022/11/24 04:36:49;;;;;;;7.72;1.48;;;;;;;6.16;100.00;100306.19;6201097;28;20486;-70
2022/11/24 04:39:51;;;;;;;3.28;0.82;;;;;;;6.10;100.00;100303.84;6200771;28;20049;-69
2022/11/24 04:42:54;;;;;;;4.57;1.75;;;;;;;5.96;100.00;100306.19;6200914;28;20442;-70
2022/11/24 04:45:59;;;;;;;5.47;1.45;;;;;;;5.95;100.00;100318.38;6200528;28;20069;-70
2022/11/24 04:49:01;;;;;;;5.75;1.33;;;;;;;5.90;100.00;100325.50;6200991;28;20413;-70
2022/11/24 04:52:03;;;;;;;2.45;1.08;;;;;;;5.86;100.00;100323.94;6200715;28;20498;-70
2022/11/24 04:55:05;;;;;;;8.93;1.65;;;;;;;5.83;100.00;100326.66;6200457;28;20057;-70
2022/11/24 04:58:08;;;;;;;7.07;1.90;;;;;;;5.83;100.00;100331.88;6200608;28;20119;-69
2022/11/24 05:01:11;;;;;;;8.18;1.70;;;;;;;5.71;100.00;100329.75;6200385;28;20050;-70
2022/11/24 05:04:14;;;;;;;12.05;1.20;;;;;;;5.69;100.00;100335.03;6199964;28;20395;-69
2022/11/24 05:07:16;;;;;;;4.03;1.08;;;;;;;5.71;100.00;100334.97;6200534;28;20051;-70
2022/11/24 05:10:36;;;;;;;2.38;1.27;;;;;;;5.72;100.00;100342.75;6200006;28;20051;-69
2022/11/24 05:13:37;;;;;;;7.82;1.10;;;;;;;5.70;100.00;100335.88;6200505;28;20050;-69
2022/11/24 05:16:40;;;;;;;7.10;1.20;;;;;;;5.71;100.00;100342.78;6200193;28;20494;-70
2022/11/24 05:19:42;;;;;;;3.13;0.90;;;;;;;5.73;100.00;100354.03;6200037;28;20061;-69
2022/11/24 05:22:43;;;;;;;2.55;1.17;;;;;;;5.71;100.00;100354.06;6200080;28;20069;-70
2022/11/24 05:25:45;;;;;;;6.03;1.05;;;;;;;5.65;100.00;100356.94;6199747;28;20051;-70
2022/11/24 05:28:46;;;;;;;3.22;0.98;;;;;;;5.68;100.00;100354.22;6200050;28;20051;-70
2022/11/24 05:31:49;;;;;;;5.40;0.80;;;;;;;5.72;100.00;100357.50;6199569;28;20525;-70
2022/11/24 05:34:51;;;;;;;6.32;1.73;;;;;;;5.71;100.00;100359.28;6198523;28;20054;-69
2022/11/24 05:37:53;;;;;;;2.17;0.98;;;;;;;5.72;100.00;100373.16;6199777;28;20249;-70
2022/11/24 05:40:54;;;;;;;8.98;1.40;;;;;;;5.68;100.00;100367.25;6199309;28;20046;-70
2022/11/24 05:43:56;;;;;;;1.98;1.00;;;;;;;5.66;100.00;100365.59;6199240;28;20058;-69
2022/11/24 05:46:58;;;;;;;7.07;1.08;;;;;;;5.59;100.00;100365.84;6198435;28;20050;-70
2022/11/24 05:50:00;;;;;;;9.23;1.27;;;;;;;5.53;100.00;100367.81;6198095;28;20166;-70
2022/11/24 05:53:02;;;;;;;2.67;1.40;;;;;;;5.46;100.00;100363.78;6198287;28;20510;-70
2022/11/24 05:56:05;;;;;;;3.58;1.02;;;;;;;5.45;100.00;100369.88;6197974;28;20144;-70
2022/11/24 05:59:06;;;;;;;6.57;1.23;;;;;;;5.46;100.00;100371.59;6198345;28;20575;-69
2022/11/24 06:02:09;;;;;;;5.90;1.52;;;;;;;5.46;100.00;100375.03;6197694;28;20046;-70
2022/11/24 06:05:11;;;;;;;4.95;0.85;;;;;;;5.43;100.00;100382.97;6197761;28;20189;-70
2022/11/24 06:08:12;;;;;;;9.65;1.95;;;;;;;5.40;100.00;100390.88;6197962;28;20057;-70
2022/11/24 06:11:20;;;;;;;11.13;1.42;;;;;;;5.32;100.00;100391.19;6197866;28;20695;-70
2022/11/24 06:14:21;;;;;;;5.07;1.38;;;;;;;5.40;100.00;100396.09;6197789;28;20061;-70
2022/11/24 06:17:24;;;;;;;1.85;0.95;;;;;;;5.41;100.00;100399.56;6197609;28;20050;-70
2022/11/24 06:20:26;;;;;;;2.60;1.35;;;;;;;5.43;100.00;100403.81;6197514;28;20053;-70
2022/11/24 06:23:27;;;;;;;2.53;1.00;;;;;;;5.42;100.00;100404.72;6197644;28;20057;-70
2022/11/24 06:26:29;;;;;;;7.45;1.15;;;;;;;5.43;100.00;100403.81;6197314;28;20057;-70
2022/11/24 06:29:30;;;;;;;5.07;1.15;;;;;;;5.46;100.00;100406.31;6197627;28;20047;-70
2022/11/24 06:32:33;;;;;;;6.32;1.30;;;;;;;5.50;100.00;100402.69;6197314;28;20042;-70
2022/11/24 06:35:34;;;;;;;5.57;1.05;;;;;;;5.51;100.00;100403.53;6196900;28;20058;-69
2022/11/24 06:38:36;;;;;;;5.30;1.27;;;;;;;5.49;100.00;100411.38;6197816;28;20057;-69
2022/11/24 06:41:37;;;;;;;3.47;1.40;;;;;;;5.47;100.00;100418.44;6196702;28;20046;-69
2022/11/24 06:44:40;;;;;;;2.60;1.10;;;;;;;5.47;100.00;100426.25;6160878;28;1056712;-70
2022/11/24 06:47:43;;;;;;;5.85;1.83;;;;;;;5.42;100.00;100428.19;6197907;28;20410;-70
2022/11/24 06:50:44;;;;;;;5.93;1.77;;;;;;;5.38;100.00;100430.94;6197825;28;20494;-70
2022/11/24 06:53:46;;;;;;;7.13;1.08;;;;;;;5.34;100.00;100433.66;6197754;28;20050;-69
2022/11/24 06:56:47;;;;;;;4.97;0.93;;;;;;;5.31;100.00;100432.91;6198035;28;20714;-70
2022/11/24 06:59:49;;;;;;;5.05;1.23;;;;;;;5.31;100.00;100445.94;6197828;28;20057;-69
2022/11/24 07:02:51;;;;;;;3.92;1.35;;;;;;;5.25;100.00;100447.03;6197976;28;20050;-70
2022/11/24 07:05:56;;;;;;;9.02;1.48;;;;;;;5.24;100.00;100454.91;6197535;28;20050;-70
2022/11/24 07:08:58;;;;;;;3.53;1.10;;;;;;;5.22;100.00;100461.91;6197769;28;20437;-69
2022/11/24 07:12:01;;;;;;;2.88;1.02;;;;;;;5.21;100.00;100460.22;6197716;28;20057;-69
2022/11/24 07:15:02;;;;;;;6.25;1.98;;;;;;;5.13;100.00;100468.28;6197356;28;20054;-69
2022/11/24 07:18:05;;;;;;;7.47;1.20;;;;;;;5.14;100.00;100467.41;6197876;28;20069;-69
2022/11/24 07:21:07;;;;;;;3.58;1.08;;;;;;;5.15;100.00;100478.69;6197198;28;20050;-69
2022/11/24 07:24:09;;;;;;;4.85;1.20;;;;;;;5.14;100.00;100469.16;6197520;28;20054;-70
2022/11/24 07:27:10;;;;;;;2.17;1.02;;;;;;;5.14;100.00;100482.19;6197683;28;20054;-70
2022/11/24 07:30:12;;;;;;;5.32;1.70;;;;;;;5.13;100.00;100486.53;6197185;28;20417;-70
2022/11/24 07:33:18;;;;;;;4.40;1.33;;;;;;;5.09;100.00;100485.81;6197666;28;20053;-69
2022/11/24 07:36:20;;;;;;;7.38;1.60;;;;;;;5.10;100.00;100484.03;6197096;28;20050;-70
2022/11/24 07:39:21;;;;;;;10.50;1.40;;;;;;;5.11;100.00;100500.53;6197636;28;20049;-69
2022/11/24 07:42:23;;;;;;;3.38;1.60;;;;;;;5.09;100.00;100496.22;6197175;28;20046;-69
2022/11/24 07:45:24;;;;;;;1.73;1.38;;;;;;;5.08;100.00;100512.72;6197170;28;20054;-70
2022/11/24 07:48:27;;;;;;;6.03;1.45;;;;;;;5.05;100.00;100518.06;6197381;28;20050;-69
2022/11/24 07:51:29;;;;;;;4.90;1.80;;;;;;;5.02;100.00;100522.53;6197159;28;20053;-69
2022/11/24 07:54:30;;;;;;;3.60;1.17;;;;;;;5.01;100.00;100526.03;6197030;28;20054;-70
2022/11/24 07:57:32;;;;;;;4.60;1.40;;;;;;;5.02;100.00;100525.97;6198079;28;20426;-70
2022/11/24 08:00:33;;;;;;;3.17;1.50;;;;;;;5.03;100.00;100524.22;6252226;23;20053;-77
2022/11/24 08:03:36;;;;;;;5.65;1.55;;;;;;;5.05;100.00;100533.69;6182218;28;20054;-77
2022/11/24 08:06:38;;;;;;;8.32;2.10;;;;;;;5.06;100.00;100534.53;6166292;28;20093;-77
2022/11/24 08:09:39;;;;;;;7.00;1.60;;;;;;;5.13;100.00;100541.22;6182390;28;20422;-77
2022/11/24 08:12:41;;;;;;;5.28;1.58;;;;;;;5.14;100.00;100536.88;6154236;28;20058;-77
2022/11/24 08:15:42;;;;;;;5.15;1.35;;;;;;;5.22;100.00;100540.06;6172392;28;20058;-78
2022/11/24 08:18:49;;;;;;;7.03;1.63;;;;;;;5.29;100.00;100545.00;6169807;28;20061;-77
2022/11/24 08:21:51;;;;;;;8.43;1.58;;;;;;;5.47;100.00;100538.31;6177531;28;20395;-77
2022/11/24 08:24:52;;;;;;;6.53;1.45;;;;;;;5.59;100.00;100544.84;6177745;28;20051;-78
2022/11/24 08:27:54;;;;;;;9.07;1.90;;;;;;;5.78;100.00;100543.25;6177912;28;20210;-77
2022/11/24 08:31:01;;;;;;;12.27;1.40;;;;;;;5.95;100.00;100541.78;6177368;28;20047;-77
2022/11/24 08:34:05;;;;;;;6.90;2.10;;;;;;;6.07;100.00;100550.03;6177899;28;20430;-78
2022/11/24 08:37:07;;;;;;;13.80;1.77;;;;;;;6.26;100.00;100550.16;6178133;28;20051;-77
2022/11/24 08:40:10;;;;;;;5.20;1.45;;;;;;;6.34;100.00;100552.47;6177666;28;20055;-78
2022/11/24 08:43:11;;;;;;;10.77;1.30;;;;;;;6.46;100.00;100552.00;6177169;28;20054;-77
2022/11/24 08:46:15;;;;;;;4.65;1.48;;;;;;;6.56;100.00;100561.16;6177399;28;20058;-77
2022/11/24 08:49:18;;;;;;;8.38;2.05;;;;;;;6.64;100.00;100570.47;6176924;28;20106;-77
2022/11/24 08:52:20;;;;;;;8.55;2.10;;;;;;;6.78;100.00;100568.16;6176828;28;20046;-77
2022/11/24 08:55:21;;;;;;;5.75;1.73;;;;;;;6.85;100.00;100583.50;6176640;28;20051;-77
2022/11/24 08:58:22;;;;;;;7.70;2.42;;;;;;;7.01;100.00;100580.28;6176960;28;20057;-74
2022/11/24 09:01:24;;;;;;;11.27;1.70;;;;;;;7.15;100.00;100582.31;6176030;28;20051;-74
2022/11/24 09:04:27;;;;;;;11.57;2.00;;;;;;;7.31;100.00;100581.59;6176278;28;20058;-76
2022/11/24 09:07:28;;;;;;;10.35;1.75;;;;;;;7.36;100.00;100584.88;6176600;28;20062;-77
2022/11/24 09:10:30;;;;;;;5.90;1.48;;;;;;;7.43;100.00;100592.44;6174961;28;20057;-77
2022/11/24 09:13:31;;;;;;;6.65;1.70;;;;;;;7.47;100.00;100587.00;6176407;28;20142;-76
2022/11/24 09:16:33;;;;;;;12.30;2.08;;;;;;;7.50;100.00;100594.75;6176080;28;20059;-74
2022/11/24 09:19:36;;;;;;;5.15;1.70;;;;;;;7.50;100.00;100596.50;6176467;28;20055;-76
2022/11/24 09:22:39;;;;;;;8.85;1.65;;;;;;;7.48;100.00;100600.94;6175939;28;20046;-76
2022/11/24 09:25:41;;;;;;;8.98;2.30;;;;;;;7.54;100.00;100603.28;6176135;28;20143;-75
2022/11/24 09:28:43;;;;;;;10.18;2.10;;;;;;;7.53;100.00;100605.03;6175969;28;20046;-75
2022/11/24 09:31:44;;;;;;;8.20;1.50;;;;;;;7.57;100.00;100609.22;6175896;28;20050;-74
2022/11/24 09:34:47;;;;;;;17.40;2.35;;;;;;;7.63;100.00;100605.53;6175411;28;20495;-74
2022/11/24 09:37:50;;;;;;;4.78;1.63;;;;;;;7.71;100.00;100613.88;6175070;28;20072;-75
2022/11/24 09:40:52;;;;;;;12.48;2.15;;;;;;;7.74;100.00;100611.13;6172248;28;20051;-74
2022/11/24 09:44:04;;;;;;;15.45;1.85;;;;;;;7.78;100.00;100609.22;6164873;28;20062;-75
2022/11/24 09:47:15;;;;;;;12.90;2.10;;;;;;;7.84;100.00;100615.03;6175739;28;20182;-74
2022/11/24 09:50:20;;;;;;;13.85;2.55;;;;;;;7.97;100.00;100625.81;6175630;28;20062;-75
2022/11/24 09:53:31;;;;;;;16.40;2.58;;;;;;;8.03;100.00;100630.75;6177219;28;20505;-75
2022/11/24 09:56:36;;;;;;;11.57;2.13;;;;;;;8.08;100.00;100630.56;6177249;28;20541;-75
2022/11/24 09:59:40;;;;;;;5.13;1.77;;;;;;;8.20;100.00;100629.16;6177349;28;20073;-75
2022/11/24 10:02:43;;;;;;;11.13;2.53;;;;;;;8.24;100.00;100625.47;6171677;28;20051;-76
2022/11/24 10:05:50;;;;;;;4.07;2.40;;;;;;;8.26;100.00;100634.94;6167038;28;20062;-75
2022/11/24 10:09:06;;;;;;;8.75;2.38;;;;;;;8.32;100.00;100633.84;6170299;28;20460;-74
2022/11/24 10:12:16;;;;;;;10.98;1.65;;;;;;;8.44;100.00;100642.91;6168066;28;20042;-76
2022/11/24 10:15:26;;;;;;;9.80;1.90;;;;;;;8.48;100.00;100642.72;6173333;28;20061;-75
2022/11/24 10:18:41;;;;;;;10.93;1.70;;;;;;;8.48;100.00;100654.97;6174447;28;20189;-74
2022/11/24 10:21:57;;;;;;;10.70;2.13;;;;;;;8.59;100.00;100648.31;6150781;28;20051;-75
2022/11/24 10:25:08;;;;;;;15.80;3.00;;;;;;;8.58;100.00;100650.97;6150839;29;20043;-75
2022/11/24 10:28:13;;;;;;;11.15;1.77;;;;;;;8.62;100.00;100642.91;6158294;28;20047;-74
2022/11/24 10:31:23;;;;;;;13.40;2.25;;;;;;;8.67;100.00;100653.16;6174218;28;20062;-75
2022/11/24 10:34:27;;;;;;;;;;;;;;;8.59;100.00;100656.16;6175619;28;20051;-77
2022/11/24 10:37:35;;;;;;;9.15;1.83;;;;;;;8.56;100.00;100663.31;6174879;28;20286;-75
2022/11/24 10:40:39;;;;;;;21.00;3.00;;;;;;;8.57;100.00;100659.78;6174588;28;20053;-74
2022/11/24 10:43:43;;;;;;;9.20;1.67;;;;;;;8.60;100.00;100664.88;6174642;28;20057;-74
2022/11/24 10:46:44;;;;;;;7.93;1.95;;;;;;;8.59;100.00;100666.66;6175795;28;20058;-75
2022/11/24 10:49:55;;;;;;;11.98;3.22;;;;;;;8.66;100.00;100667.19;6174927;28;20423;-75
2022/11/24 10:53:06;;;;;;;4.47;2.22;;;;;;;8.79;100.00;100663.09;6174572;28;20506;-75
2022/11/24 10:56:07;;;;;;;9.00;2.13;;;;;;;8.84;100.00;100668.09;6174582;28;20054;-73
2022/11/24 10:59:28;;;;;;;6.35;1.63;;;;;;;8.87;100.00;100681.06;6174686;28;20047;-74
2022/11/24 11:02:33;;;;;;;6.20;1.90;;;;;;;8.94;100.00;100669.34;6173616;28;20058;-74
2022/11/24 11:05:41;;;;;;;11.00;3.15;;;;;;;9.07;100.00;100667.00;6173033;28;20054;-76
2022/11/24 11:08:44;;;;;;;8.38;1.90;;;;;;;9.23;100.00;100660.09;6167858;28;20109;-75
2022/11/24 11:11:47;;;;;;;10.00;2.10;;;;;;;9.30;100.00;100663.25;6165386;28;20070;-75
2022/11/24 11:14:49;;;;;;;10.13;3.17;;;;;;;9.37;100.00;100662.88;6163120;28;20059;-75
2022/11/24 11:17:56;;;;;;;11.82;2.95;;;;;;;9.72;100.00;100672.50;6174225;28;20062;-75
2022/11/24 11:21:00;;;;;;;13.10;2.10;;;;;;;9.74;100.00;100668.91;6173202;28;20054;-75
2022/11/24 11:24:13;;;;;;;11.60;2.22;;;;;;;9.79;100.00;100668.66;6173444;28;20047;-74
2022/11/24 11:27:18;;;;;;;12.68;1.95;;;;;;;9.81;100.00;100672.03;6172763;28;20125;-74
2022/11/24 11:30:23;;;;;;;10.60;2.10;;;;;;;9.75;100.00;100681.09;6168596;28;20150;-74
2022/11/24 11:33:28;;;;;;;6.50;1.75;;;;;;;9.62;100.00;100687.88;6175809;28;20050;-77
2022/11/24 11:36:31;;;;;;;6.55;1.67;;;;;;;9.52;100.00;100692.75;6178171;28;20050;-78
2022/11/24 11:39:36;;;;;;;8.55;2.50;;;;;;;9.50;100.00;100694.59;6178543;28;20054;-76
2022/11/24 11:42:44;;;;;;;5.22;2.13;;;;;;;9.50;100.00;100697.22;6178391;28;20046;-78
2022/11/24 11:45:46;;;;;;;8.50;2.53;;;;;;;9.41;100.00;100700.31;6172062;28;20053;-77
2022/11/24 11:48:47;;;;;;;7.38;2.38;;;;;;;9.39;100.00;100702.16;6178229;28;20422;-73
2022/11/24 11:52:03;;;;;;;4.65;1.90;;;;;;;9.43;100.00;100700.22;6178790;28;20582;-77
2022/11/24 11:55:33;;;;;;;5.50;2.08;;;;;;;9.39;100.00;100717.88;6178042;28;20058;-79
2022/11/24 11:59:00;;;;;;;5.88;2.60;;;;;;;9.65;100.00;100709.56;6178530;28;20057;-78
2022/11/24 12:02:26;;;;;;;8.88;2.50;;;;;;;9.61;100.00;100705.41;6172920;28;20058;-74
2022/11/24 12:05:34;;;;;;;6.50;1.63;;;;;;;9.63;100.00;100711.44;6177928;28;20052;-77
2022/11/24 12:08:47;;;;;;;7.68;2.05;;;;;;;9.45;100.00;100709.72;6178920;28;20050;-77
2022/11/24 12:12:11;;;;;;;5.75;2.10;;;;;;;9.29;100.00;100722.72;6178274;28;20050;-78
2022/11/24 12:15:20;;;;;;;9.30;2.45;;;;;;;9.20;100.00;100722.31;6177979;28;20059;-77
2022/11/24 12:18:32;;;;;;;8.35;1.80;;;;;;;9.06;100.00;100726.44;6178679;28;20499;-78
2022/11/24 12:21:42;;;;;;;5.82;1.65;;;;;;;8.96;100.00;100734.84;6177362;28;20070;-77
2022/11/24 12:24:53;;;;;;;3.45;1.67;;;;;;;8.98;100.00;100739.06;6177082;28;20061;-78
2022/11/24 12:28:16;;;;;;;4.57;1.92;;;;;;;8.96;100.00;100746.16;6178027;28;20053;-78
2022/11/24 12:31:25;;;;;;;2.97;1.67;;;;;;;8.94;100.00;100742.75;6177763;28;20054;-78
2022/11/24 12:34:41;;;;;;;4.40;1.75;;;;;;;8.88;100.00;100758.75;6177711;28;20070;-78
2022/11/24 12:37:55;;;;;;;5.03;1.60;;;;;;;8.86;100.00;100761.47;6177907;28;20061;-78
2022/11/24 12:41:18;;;;;;;4.72;1.40;;;;;;;8.88;100.00;100753.53;6177145;28;20051;-76
2022/11/24 12:44:40;;;;;;;6.30;1.65;;;;;;;8.75;100.00;100755.00;6176478;28;20051;-78
2022/11/24 12:48:04;;;;;;;2.20;1.30;;;;;;;8.78;100.00;100757.50;6177935;28;20061;-78
2022/11/24 12:51:14;;;;;;;3.45;1.73;;;;;;;8.74;100.00;100766.41;6176791;28;20444;-78
2022/11/24 12:54:21;;;;;;;7.57;1.63;;;;;;;8.60;100.00;100767.03;6176530;28;20058;-78
2022/11/24 12:57:30;;;;;;;3.10;2.40;;;;;;;8.63;100.00;100766.91;6176789;28;20287;-78
2022/11/24 13:00:39;;;;;;;4.43;1.55;;;;;;;8.62;100.00;100765.19;6176625;28;20058;-78
2022/11/24 13:03:49;;;;;;;5.30;1.90;;;;;;;8.63;100.00;100773.00;6168504;28;20507;-73
2022/11/24 13:06:54;;;;;;;2.63;1.77;;;;;;;8.61;100.00;100780.06;6176777;28;20418;-74
2022/11/24 13:10:27;;;;;;;5.18;2.22;;;;;;;8.70;100.00;100783.19;6176071;28;20477;-77
2022/11/24 13:13:57;;;;;;;2.85;1.73;;;;;;;8.62;100.00;100786.97;6176912;28;20046;-78
2022/11/24 13:17:01;;;;;;;4.95;1.83;;;;;;;8.62;100.00;100786.97;6176960;28;20050;-76
2022/11/24 13:20:24;;;;;;;6.07;1.73;;;;;;;8.64;100.00;100786.94;6177282;28;20055;-77
2022/11/24 13:23:27;;;;;;;7.35;2.83;;;;;;;8.73;100.00;100790.91;6177283;28;20070;-77
2022/11/24 13:26:30;;;;;;;6.68;2.58;;;;;;;8.77;100.00;100788.09;6176010;28;20514;-74
2022/11/24 13:29:35;;;;;;;3.90;2.22;;;;;;;8.76;100.00;100794.22;6175959;28;20050;-74
2022/11/24 13:33:17;;;;;;;2.60;2.10;;;;;;;8.72;100.00;100794.44;6175787;28;20047;-74
2022/11/24 13:36:33;;;;;;;5.82;2.30;;;;;;;8.70;100.00;100801.53;6151358;28;20091;-74
2022/11/24 13:39:47;;;;;;;8.25;2.38;;;;;;;8.60;100.00;100804.56;6152189;28;20058;-73
2022/11/24 13:43:20;;;;;;;4.45;2.70;;;;;;;8.68;100.00;100816.47;6151678;29;20062;-75
2022/11/24 13:46:54;;;;;;;7.97;2.95;;;;;;;8.68;100.00;100816.47;6151723;28;20054;-75
2022/11/24 13:49:57;;;;;;;5.05;2.15;;;;;;;8.68;100.00;100821.72;6151628;29;20082;-74
2022/11/24 13:53:09;;;;;;;6.38;3.08;;;;;;;8.68;100.00;100819.09;6151614;28;20058;-74
2022/11/24 13:56:23;;;;;;;7.68;2.17;;;;;;;8.69;100.00;100823.41;6150694;28;20052;-74
2022/11/24 13:59:34;;;;;;;8.02;2.05;;;;;;;8.70;100.00;100832.97;6180900;23;20121;-71
2022/11/24 14:02:36;;;;;;;3.00;2.05;;;;;;;8.71;100.00;100832.88;6223390;28;20520;-72
2022/11/24 14:05:45;;;;;;;5.53;2.60;;;;;;;8.70;100.00;100838.19;6223043;28;20084;-71
2022/11/24 14:08:47;;;;;;;;;;;;;;;8.82;100.00;100837.66;6223917;28;20054;-69
2022/11/24 14:11:58;;;;;;;3.20;1.98;;;;;;;8.90;100.00;100832.91;6222920;28;20402;-71
2022/11/24 14:15:21;;;;;;;5.28;2.47;;;;;;;8.96;100.00;100832.66;6223001;28;20046;-71
2022/11/24 14:18:22;;;;;;;5.15;2.28;;;;;;;8.93;100.00;100824.06;6223178;28;20050;-71
2022/11/24 14:21:29;;;;;;;3.35;2.03;;;;;;;8.82;100.00;100822.78;6222791;28;20501;-69
2022/11/24 14:24:32;;;;;;;7.82;2.58;;;;;;;8.71;100.00;100838.13;6222641;28;20045;-70